createdAt,value
2019-04-07T00:00:13.190Z,7.80
2019-04-07T00:02:43.367Z,7.80
2019-04-07T00:05:14.807Z,7.90
2019-04-07T00:07:45.330Z,7.90
2019-04-07T00:10:15.757Z,7.90
2019-04-07T00:12:46.433Z,7.80
2019-04-07T00:15:16.857Z,7.80
2019-04-07T00:17:47.628Z,7.80
2019-04-07T00:20:17.792Z,7.80
2019-04-07T00:22:47.881Z,7.80
2019-04-07T00:25:17.949Z,7.70
2019-04-07T00:27:48.105Z,7.70
2019-04-07T00:30:18.353Z,7.70
2019-04-07T00:32:48.443Z,7.60
2019-04-07T00:35:26.529Z,7.60
2019-04-07T00:37:50.317Z,7.50
2019-04-07T00:40:20.864Z,7.40
2019-04-07T00:42:50.929Z,7.40
2019-04-07T00:45:21.537Z,7.30
2019-04-07T00:47:51.673Z,7.10
2019-04-07T00:50:21.986Z,7.10
2019-04-07T00:52:52.997Z,7.10
2019-04-07T00:55:25.366Z,7.20
2019-04-07T00:57:56.132Z,7.20
2019-04-07T01:00:28.101Z,7.30
2019-04-07T01:02:58.325Z,7.30
2019-04-07T01:05:35.648Z,7.30
2019-04-07T01:08:00.562Z,7.20
2019-04-07T01:10:30.729Z,7.20
2019-04-07T01:13:01.061Z,7.00
2019-04-07T01:15:31.658Z,7.00
2019-04-07T01:18:02.131Z,6.90
2019-04-07T01:20:32.962Z,6.90
2019-04-07T01:23:03.033Z,6.90
2019-04-07T01:25:33.250Z,7.00
2019-04-07T01:28:03.333Z,7.00
2019-04-07T01:30:33.666Z,7.00
2019-04-07T01:33:03.955Z,6.80
2019-04-07T01:35:44.459Z,6.80
2019-04-07T01:38:05.999Z,6.80
2019-04-07T01:40:36.475Z,6.80
2019-04-07T01:43:11.391Z,6.80
2019-04-07T01:45:58.818Z,6.80
2019-04-07T01:48:30.546Z,6.70
2019-04-07T01:51:18.475Z,6.50
2019-04-07T01:54:05.336Z,6.40
2019-04-07T01:56:37.238Z,6.40
2019-04-07T01:59:12.120Z,6.40
2019-04-07T02:01:52.941Z,6.30
2019-04-07T02:04:24.685Z,6.30
2019-04-07T02:07:13.707Z,6.30
2019-04-07T02:10:01.204Z,6.30
2019-04-07T02:12:49.887Z,6.10
2019-04-07T02:15:25.204Z,6.10
2019-04-07T02:18:00.132Z,6.20
2019-04-07T02:20:48.807Z,6.20
2019-04-07T02:23:26.558Z,6.20
2019-04-07T02:25:58.364Z,6.20
2019-04-07T02:28:30.776Z,6.30
2019-04-07T02:31:02.696Z,6.30
2019-04-07T02:33:34.945Z,6.20
2019-04-07T02:36:18.181Z,6.20
2019-04-07T02:38:49.976Z,6.10
2019-04-07T02:41:21.894Z,6.00
2019-04-07T02:44:05.790Z,5.90
2019-04-07T02:46:41.142Z,5.90
2019-04-07T02:49:24.867Z,5.90
2019-04-07T02:52:14.687Z,5.80
2019-04-07T02:54:57.979Z,5.80
2019-04-07T02:57:29.669Z,5.70
2019-04-07T03:00:10.239Z,5.50
2019-04-07T03:02:47.784Z,5.40
2019-04-07T03:05:34.828Z,5.30
2019-04-07T03:08:06.522Z,5.20
2019-04-07T03:10:47.484Z,5.10
2019-04-07T03:13:19.392Z,4.90
2019-04-07T03:16:04.425Z,5.00
2019-04-07T03:18:48.282Z,4.90
2019-04-07T03:21:31.854Z,4.90
2019-04-07T03:24:09.463Z,4.80
2019-04-07T03:26:44.474Z,4.70
2019-04-07T03:29:20.233Z,4.70
2019-04-07T03:32:14.118Z,4.70
2019-04-07T03:34:49.136Z,4.70
2019-04-07T03:37:44.315Z,4.60
2019-04-07T03:40:30.976Z,4.50
2019-04-07T03:43:07.052Z,4.30
2019-04-07T03:45:39.610Z,4.30
2019-04-07T03:48:17.767Z,4.20
2019-04-07T03:51:06.785Z,4.10
2019-04-07T03:53:39.312Z,4.10
2019-04-07T03:56:11.071Z,4.00
2019-04-07T03:58:42.980Z,4.00
2019-04-07T04:01:15.721Z,4.10
2019-04-07T04:03:48.077Z,4.10
2019-04-07T04:06:28.851Z,4.10
2019-04-07T04:09:01.877Z,4.10
2019-04-07T04:11:39.761Z,4.10
2019-04-07T04:14:22.032Z,4.00
2019-04-07T04:16:54.241Z,4.00
2019-04-07T04:19:24.832Z,3.90
2019-04-07T04:21:54.985Z,3.80
2019-04-07T04:24:25.114Z,3.80
2019-04-07T04:26:55.170Z,3.80
2019-04-07T04:29:25.249Z,3.70
2019-04-07T04:31:55.702Z,3.70
2019-04-07T04:34:25.785Z,3.50
2019-04-07T04:36:56.292Z,3.50
2019-04-07T04:39:26.572Z,3.50
2019-04-07T04:41:57.628Z,3.40
2019-04-07T04:44:28.414Z,3.40
2019-04-07T04:46:58.823Z,3.50
2019-04-07T04:49:29.008Z,3.60
2019-04-07T04:51:59.067Z,3.50
2019-04-07T04:54:29.343Z,3.50
2019-04-07T04:57:00.156Z,3.40
2019-04-07T04:59:31.319Z,3.30
2019-04-07T05:02:03.331Z,3.30
2019-04-07T05:04:34.097Z,3.40
2019-04-07T05:07:04.268Z,3.40
2019-04-07T05:09:44.368Z,3.30
2019-04-07T05:12:06.892Z,3.40
2019-04-07T05:14:38.017Z,3.40
2019-04-07T05:17:10.115Z,3.50
2019-04-07T05:19:42.751Z,3.50
2019-04-07T05:22:12.523Z,3.70
2019-04-07T05:24:42.709Z,3.80
2019-04-07T05:27:12.802Z,3.90
2019-04-07T05:29:44.845Z,4.00
2019-04-07T05:32:16.926Z,4.30
2019-04-07T05:34:48.986Z,4.60
2019-04-07T05:37:21.069Z,4.80
2019-04-07T05:39:56.982Z,5.20
2019-04-07T05:42:28.049Z,5.50
2019-04-07T05:44:58.553Z,5.80
2019-04-07T05:47:28.662Z,6.20
2019-04-07T05:50:02.760Z,6.50
2019-04-07T05:52:38.568Z,6.80
2019-04-07T05:55:07.812Z,7.00
2019-04-07T05:57:44.222Z,7.40
2019-04-07T06:00:16.656Z,7.70
2019-04-07T06:02:47.088Z,8.10
2019-04-07T06:05:23.123Z,8.40
2019-04-07T06:07:56.900Z,8.70
2019-04-07T06:10:29.743Z,9.00
2019-04-07T06:13:00.693Z,9.30
2019-04-07T06:15:31.245Z,9.50
2019-04-07T06:18:02.489Z,9.60
2019-04-07T06:20:39.156Z,9.70
2019-04-07T06:23:09.293Z,9.60
2019-04-07T06:25:41.942Z,9.60
2019-04-07T06:28:11.149Z,9.60
2019-04-07T06:30:42.865Z,9.60
2019-04-07T06:33:15.628Z,9.50
2019-04-07T06:35:47.626Z,9.60
2019-04-07T06:38:31.196Z,9.70
2019-04-07T06:40:57.797Z,10.00
2019-04-07T06:43:28.133Z,10.20
2019-04-07T06:46:18.761Z,10.30
2019-04-07T06:49:00.535Z,10.50
2019-04-07T06:51:40.101Z,10.70
2019-04-07T06:54:27.561Z,11.00
2019-04-07T06:57:22.161Z,11.00
2019-04-07T06:59:59.859Z,11.20
2019-04-07T07:02:32.839Z,11.40
2019-04-07T07:05:22.395Z,11.50
2019-04-07T07:07:57.739Z,11.60
2019-04-07T07:10:45.648Z,11.70
2019-04-07T07:13:30.758Z,12.00
2019-04-07T07:16:07.892Z,12.10
2019-04-07T07:18:41.914Z,12.30
2019-04-07T07:21:34.055Z,12.50
2019-04-07T07:24:02.424Z,12.70
2019-04-07T07:26:35.336Z,12.80
2019-04-07T07:29:06.694Z,12.60
2019-04-07T07:31:37.941Z,12.60
2019-04-07T07:34:10.135Z,12.80
2019-04-07T07:36:40.743Z,13.00
2019-04-07T07:39:12.538Z,13.30
2019-04-07T07:41:51.959Z,13.50
2019-04-07T07:44:22.406Z,13.60
2019-04-07T07:46:52.808Z,13.60
2019-04-07T07:49:33.511Z,13.60
2019-04-07T07:52:02.679Z,13.70
2019-04-07T07:54:33.429Z,13.80
2019-04-07T07:57:04.959Z,13.80
2019-04-07T07:59:38.952Z,13.80
2019-04-07T08:02:08.580Z,13.90
2019-04-07T08:04:45.785Z,14.10
2019-04-07T08:07:18.274Z,14.80
2019-04-07T08:09:48.298Z,15.30
2019-04-07T08:12:18.397Z,15.30
2019-04-07T08:14:52.345Z,16.00
2019-04-07T08:17:21.333Z,16.50
2019-04-07T08:19:55.693Z,16.90
2019-04-07T08:22:32.464Z,17.30
2019-04-07T08:25:04.230Z,17.30
2019-04-07T08:27:34.434Z,17.20
2019-04-07T08:30:11.837Z,17.00
2019-04-07T08:32:45.453Z,16.90
2019-04-07T08:35:16.458Z,17.80
2019-04-07T08:37:48.862Z,18.30
2019-04-07T08:40:20.928Z,18.90
2019-04-07T08:42:51.863Z,19.50
2019-04-07T08:45:23.063Z,18.70
2019-04-07T08:47:54.151Z,18.20
2019-04-07T08:50:27.747Z,18.30
2019-04-07T08:53:03.188Z,18.30
2019-04-07T08:55:33.537Z,18.80
2019-04-07T08:58:05.539Z,18.60
2019-04-07T09:00:37.249Z,18.20
2019-04-07T09:03:12.028Z,18.50
2019-04-07T09:05:46.734Z,18.90
2019-04-07T09:08:17.237Z,19.00
2019-04-07T09:10:59.373Z,19.40
2019-04-07T09:13:33.716Z,19.00
2019-04-07T09:16:08.458Z,18.40
2019-04-07T09:19:00.688Z,18.60
2019-04-07T09:21:42.069Z,19.40
2019-04-07T09:24:13.330Z,19.70
2019-04-07T09:26:47.788Z,19.50
2019-04-07T09:29:35.324Z,19.40
2019-04-07T09:32:08.405Z,20.20
2019-04-07T09:34:42.833Z,20.90
2019-04-07T09:37:22.047Z,21.30
2019-04-07T09:40:09.563Z,22.70
2019-04-07T09:42:46.989Z,24.20
2019-04-07T09:45:24.522Z,24.80
2019-04-07T09:48:04.015Z,25.40
2019-04-07T09:50:51.359Z,26.20
2019-04-07T09:53:24.849Z,26.00
2019-04-07T09:55:59.220Z,25.60
2019-04-07T09:58:42.705Z,23.70
2019-04-07T10:01:17.590Z,23.30
2019-04-07T10:03:48.422Z,23.00
2019-04-07T10:06:22.029Z,21.80
2019-04-07T10:08:56.173Z,21.50
2019-04-07T10:11:28.524Z,21.50
2019-04-07T10:14:05.672Z,22.10
2019-04-07T10:16:47.321Z,22.10
2019-04-07T10:19:25.636Z,21.70
2019-04-07T10:22:16.174Z,22.00
2019-04-07T10:24:48.293Z,22.70
2019-04-07T10:27:20.487Z,24.10
2019-04-07T10:30:00.785Z,25.40
2019-04-07T10:32:37.141Z,25.10
2019-04-07T10:35:12.587Z,25.50
2019-04-07T10:37:58.953Z,26.60
2019-04-07T10:40:43.845Z,28.40
2019-04-07T10:43:15.677Z,26.60
2019-04-07T10:46:05.817Z,26.20
2019-04-07T10:49:12.327Z,26.00
2019-04-07T10:51:54.169Z,24.50
2019-04-07T10:54:28.738Z,23.00
2019-04-07T10:57:20.517Z,21.50
2019-04-07T10:59:52.193Z,20.80
2019-04-07T11:02:39.307Z,21.10
2019-04-07T11:05:20.572Z,22.20
2019-04-07T11:08:01.292Z,24.10
2019-04-07T11:10:48.857Z,25.10
2019-04-07T11:13:20.938Z,24.50
2019-04-07T11:16:06.299Z,24.00
2019-04-07T11:18:47.217Z,24.00
2019-04-07T11:21:18.955Z,24.40
2019-04-07T11:23:53.278Z,25.10
2019-04-07T11:26:28.845Z,25.10
2019-04-07T11:29:01.652Z,24.40
2019-04-07T11:31:41.897Z,24.80
2019-04-07T11:34:19.434Z,23.80
2019-04-07T11:36:55.018Z,23.80
2019-04-07T11:39:29.558Z,23.00
2019-04-07T11:42:16.377Z,22.40
2019-04-07T11:44:49.818Z,22.30
2019-04-07T11:47:40.410Z,22.50
2019-04-07T11:50:17.268Z,22.60
2019-04-07T11:52:56.263Z,22.30
2019-04-07T11:55:30.096Z,23.10
2019-04-07T11:58:27.328Z,23.40
2019-04-07T12:00:57.041Z,25.30
2019-04-07T12:03:28.970Z,26.30
2019-04-07T12:06:03.426Z,28.00
2019-04-07T12:08:36.298Z,26.90
2019-04-07T12:11:26.619Z,24.90
2019-04-07T12:14:16.281Z,25.10
2019-04-07T12:16:50.594Z,26.70
2019-04-07T12:19:24.872Z,28.10
2019-04-07T12:21:59.597Z,27.40
2019-04-07T12:24:47.961Z,25.60
2019-04-07T12:27:21.582Z,24.80
2019-04-07T12:30:02.519Z,23.90
2019-04-07T12:32:43.468Z,24.60
2019-04-07T12:35:19.506Z,26.00
2019-04-07T12:38:12.252Z,26.80
2019-04-07T12:40:43.172Z,27.20
2019-04-07T12:43:23.626Z,27.40
2019-04-07T12:46:10.127Z,24.70
2019-04-07T12:48:45.356Z,22.60
2019-04-07T12:51:29.578Z,23.80
2019-04-07T12:54:11.809Z,27.00
2019-04-07T12:56:46.719Z,25.50
2019-04-07T12:59:38.984Z,23.10
2019-04-07T13:02:20.071Z,21.50
2019-04-07T13:05:06.431Z,23.20
2019-04-07T13:07:53.109Z,24.90
2019-04-07T13:10:30.256Z,24.00
2019-04-07T13:13:02.716Z,23.30
2019-04-07T13:15:49.902Z,22.90
2019-04-07T13:18:39.758Z,22.90
2019-04-07T13:21:24.535Z,23.20
2019-04-07T13:24:07.001Z,24.10
2019-04-07T13:26:40.031Z,25.00
2019-04-07T13:29:18.630Z,24.40
2019-04-07T13:32:02.038Z,23.70
2019-04-07T13:34:43.267Z,23.90
2019-04-07T13:37:32.778Z,25.50
2019-04-07T13:40:19.917Z,26.80
2019-04-07T13:43:09.322Z,28.10
2019-04-07T13:45:46.358Z,29.10
2019-04-07T13:48:19.636Z,29.20
2019-04-07T13:50:51.305Z,27.70
2019-04-07T13:53:27.029Z,25.30
2019-04-07T13:56:17.646Z,25.30
2019-04-07T13:59:08.189Z,25.10
2019-04-07T14:01:44.003Z,25.40
2019-04-07T14:04:25.156Z,27.50
2019-04-07T14:06:57.694Z,27.90
2019-04-07T14:09:39.169Z,27.40
2019-04-07T14:12:14.294Z,24.90
2019-04-07T14:15:01.787Z,21.10
2019-04-07T14:17:36.322Z,21.80
2019-04-07T14:20:25.731Z,22.00
2019-04-07T14:23:13.210Z,22.00
2019-04-07T14:25:54.975Z,23.40
2019-04-07T14:28:44.111Z,23.90
2019-04-07T14:31:25.160Z,24.50
2019-04-07T14:33:59.015Z,24.50
2019-04-07T14:36:40.462Z,26.40
2019-04-07T14:39:14.987Z,27.20
2019-04-07T14:42:06.763Z,25.70
2019-04-07T14:44:40.177Z,23.70
2019-04-07T14:47:12.928Z,21.90
2019-04-07T14:49:53.542Z,20.70
2019-04-07T14:52:37.184Z,19.70
2019-04-07T14:55:18.479Z,19.10
2019-04-07T14:58:02.069Z,19.20
2019-04-07T15:00:43.911Z,20.50
2019-04-07T15:03:21.718Z,22.70
2019-04-07T15:05:57.982Z,22.70
2019-04-07T15:08:42.024Z,21.90
2019-04-07T15:11:15.501Z,23.20
2019-04-07T15:13:45.586Z,23.60
2019-04-07T15:16:16.603Z,24.00
2019-04-07T15:18:46.791Z,23.60
2019-04-07T15:21:16.973Z,24.00
2019-04-07T15:23:48.217Z,23.60
2019-04-07T15:26:18.314Z,24.30
2019-04-07T15:28:51.366Z,24.10
2019-04-07T15:31:23.141Z,23.20
2019-04-07T15:33:54.143Z,22.40
2019-04-07T15:36:27.589Z,21.50
2019-04-07T15:38:59.536Z,19.70
2019-04-07T15:41:31.574Z,18.90
2019-04-07T15:44:06.278Z,19.20
2019-04-07T15:46:37.534Z,18.90
2019-04-07T15:49:08.569Z,19.40
2019-04-07T15:51:45.208Z,19.80
2019-04-07T15:54:20.215Z,20.10
2019-04-07T15:56:50.179Z,20.50
2019-04-07T15:59:29.458Z,20.40
2019-04-07T16:01:59.089Z,19.10
2019-04-07T16:04:31.924Z,18.00
2019-04-07T16:07:03.088Z,17.20
2019-04-07T16:09:47.410Z,16.80
2019-04-07T16:12:06.541Z,17.20
2019-04-07T16:14:37.454Z,18.00
2019-04-07T16:17:10.528Z,18.60
2019-04-07T16:19:47.695Z,18.80
2019-04-07T16:22:16.865Z,18.20
2019-04-07T16:24:47.492Z,18.20
2019-04-07T16:27:17.686Z,18.40
2019-04-07T16:29:48.693Z,18.10
2019-04-07T16:32:19.640Z,18.00
2019-04-07T16:34:51.887Z,18.00
2019-04-07T16:37:22.615Z,17.50
2019-04-07T16:39:53.805Z,17.20
2019-04-07T16:42:31.558Z,17.40
2019-04-07T16:45:02.041Z,17.50
2019-04-07T16:47:35.655Z,17.40
2019-04-07T16:50:08.668Z,17.30
2019-04-07T16:52:39.863Z,17.10
2019-04-07T16:55:40.148Z,16.90
2019-04-07T16:58:14.294Z,16.80
2019-04-07T17:00:45.285Z,16.30
2019-04-07T17:03:17.561Z,15.80
2019-04-07T17:05:47.686Z,15.50
2019-04-07T17:08:21.089Z,15.20
2019-04-07T17:10:50.625Z,14.90
2019-04-07T17:13:30.578Z,14.80
2019-04-07T17:15:54.074Z,14.80
2019-04-07T17:18:38.864Z,14.70
2019-04-07T17:21:15.584Z,14.50
2019-04-07T17:23:46.161Z,14.30
2019-04-07T17:26:18.274Z,14.10
2019-04-07T17:28:59.590Z,13.90
2019-04-07T17:31:34.716Z,13.60
2019-04-07T17:34:09.846Z,13.40
2019-04-07T17:36:37.566Z,13.30
2019-04-07T17:39:26.286Z,13.00
2019-04-07T17:41:57.942Z,12.80
2019-04-07T17:44:40.347Z,12.60
2019-04-07T17:47:13.796Z,12.40
2019-04-07T17:49:48.346Z,12.20
2019-04-07T17:52:22.534Z,12.00
2019-04-07T17:55:00.194Z,11.90
2019-04-07T17:57:37.028Z,11.80
2019-04-07T18:00:24.251Z,11.70
2019-04-07T18:03:05.220Z,11.60
2019-04-07T18:05:36.604Z,11.50
2019-04-07T18:08:13.000Z,11.50
2019-04-07T18:10:57.877Z,11.40
2019-04-07T18:13:43.411Z,11.30
2019-04-07T18:16:25.639Z,11.20
2019-04-07T18:19:15.281Z,11.00
2019-04-07T18:22:06.210Z,10.90
2019-04-07T18:24:53.875Z,10.90
2019-04-07T18:27:47.476Z,10.80
2019-04-07T18:30:23.456Z,10.70
2019-04-07T18:33:16.384Z,10.60
2019-04-07T18:35:51.053Z,10.50
2019-04-07T18:38:22.905Z,10.40
2019-04-07T18:41:03.521Z,10.30
2019-04-07T18:43:52.902Z,10.30
2019-04-07T18:46:19.456Z,10.10
2019-04-07T18:48:53.413Z,10.10
2019-04-07T18:51:35.934Z,10.10
2019-04-07T18:54:23.686Z,10.00
2019-04-07T18:57:04.256Z,9.90
2019-04-07T18:59:59.369Z,9.90
2019-04-07T19:03:00.634Z,9.80
2019-04-07T19:05:47.996Z,9.70
2019-04-07T19:08:35.842Z,9.70
2019-04-07T19:11:15.521Z,9.60
2019-04-07T19:14:12.889Z,9.60
2019-04-07T19:16:31.903Z,9.60
2019-04-07T19:19:05.005Z,9.50
2019-04-07T19:21:38.756Z,9.50
2019-04-07T19:24:25.135Z,9.40
2019-04-07T19:26:57.389Z,9.40
2019-04-07T19:29:31.734Z,9.40
2019-04-07T19:32:14.747Z,9.40
2019-04-07T19:34:53.158Z,9.40
2019-04-07T19:38:00.143Z,9.50
2019-04-07T19:40:32.927Z,9.50
2019-04-07T19:43:20.856Z,9.40
2019-04-07T19:46:05.338Z,9.40
2019-04-07T19:48:47.011Z,9.20
2019-04-07T19:51:19.790Z,9.20
2019-04-07T19:53:54.203Z,9.10
2019-04-07T19:56:41.426Z,9.00
2019-04-07T19:59:17.421Z,9.00
2019-04-07T20:01:50.294Z,9.00
2019-04-07T20:04:40.168Z,9.10
2019-04-07T20:07:13.647Z,9.00
2019-04-07T20:09:52.488Z,8.90
2019-04-07T20:12:25.049Z,8.90
2019-04-07T20:15:16.086Z,8.80
2019-04-07T20:18:00.689Z,8.70
2019-04-07T20:20:34.138Z,8.60
2019-04-07T20:23:16.013Z,8.60
2019-04-07T20:25:48.043Z,8.50
2019-04-07T20:28:30.370Z,8.60
2019-04-07T20:31:12.639Z,8.60
2019-04-07T20:34:05.567Z,8.70
2019-04-07T20:36:55.068Z,8.70
2019-04-07T20:39:29.492Z,8.60
2019-04-07T20:42:03.888Z,8.60
2019-04-07T20:44:58.503Z,8.50
2019-04-07T20:47:38.247Z,8.40
2019-04-07T20:50:21.555Z,8.20
2019-04-07T20:53:14.825Z,8.10
2019-04-07T20:55:59.272Z,7.90
2019-04-07T20:58:55.544Z,7.90
2019-04-07T21:01:33.539Z,7.90
2019-04-07T21:04:15.076Z,7.80
2019-04-07T21:06:47.548Z,7.60
2019-04-07T21:09:19.548Z,7.60
2019-04-07T21:11:58.899Z,7.40
2019-04-07T21:14:45.358Z,7.30
2019-04-07T21:17:23.828Z,7.10
2019-04-07T21:20:11.786Z,7.00
2019-04-07T21:22:54.515Z,6.90
2019-04-07T21:25:31.644Z,6.90
2019-04-07T21:28:21.088Z,6.90
2019-04-07T21:30:57.845Z,7.10
2019-04-07T21:33:40.916Z,7.20
2019-04-07T21:36:12.810Z,7.40
2019-04-07T21:38:45.407Z,7.50
2019-04-07T21:41:26.409Z,7.60
2019-04-07T21:44:14.412Z,7.70
2019-04-07T21:46:48.406Z,7.80
2019-04-07T21:49:22.114Z,7.90
2019-04-07T21:51:55.464Z,8.00
2019-04-07T21:54:32.780Z,8.00
2019-04-07T21:57:19.658Z,8.10
2019-04-07T21:59:52.604Z,8.20
2019-04-07T22:02:42.370Z,8.20
2019-04-07T22:05:15.596Z,8.20
2019-04-07T22:07:48.425Z,8.20
2019-04-07T22:10:20.519Z,8.30
2019-04-07T22:12:51.906Z,8.30
2019-04-07T22:15:22.589Z,8.40
2019-04-07T22:17:52.794Z,8.40
2019-04-07T22:20:23.866Z,8.50
2019-04-07T22:22:57.534Z,8.40
2019-04-07T22:25:36.213Z,8.40
2019-04-07T22:28:06.099Z,8.40
2019-04-07T22:30:43.550Z,8.30
2019-04-07T22:33:25.312Z,8.30
2019-04-07T22:35:54.270Z,8.20
2019-04-07T22:38:35.757Z,8.10
2019-04-07T22:41:07.374Z,8.10
2019-04-07T22:43:47.827Z,8.10
2019-04-07T22:46:19.476Z,8.00
2019-04-07T22:48:48.874Z,8.10
2019-04-07T22:51:18.975Z,8.00
2019-04-07T22:53:49.661Z,8.00
2019-04-07T22:56:20.363Z,7.90
2019-04-07T22:58:50.462Z,7.90
2019-04-07T23:01:25.045Z,7.80
2019-04-07T23:03:56.043Z,7.70
2019-04-07T23:06:27.120Z,7.70
2019-04-07T23:08:57.371Z,7.70
2019-04-07T23:11:33.200Z,7.70
2019-04-07T23:14:05.406Z,7.70
2019-04-07T23:16:35.999Z,7.70
2019-04-07T23:19:08.860Z,7.80
2019-04-07T23:21:39.818Z,7.80
2019-04-07T23:24:12.853Z,7.80
2019-04-07T23:26:44.631Z,7.80
2019-04-07T23:29:14.800Z,7.80
2019-04-07T23:31:45.994Z,7.90
2019-04-07T23:34:21.069Z,8.00
2019-04-07T23:36:52.079Z,8.00
2019-04-07T23:39:23.182Z,8.10
2019-04-07T23:41:53.319Z,8.10
2019-04-07T23:44:24.330Z,8.10
2019-04-07T23:46:55.338Z,8.10
2019-04-07T23:49:26.058Z,8.10
2019-04-07T23:51:57.218Z,8.20
2019-04-07T23:54:28.978Z,8.20
2019-04-07T23:57:00.347Z,8.30
2019-04-07T23:59:31.346Z,8.40
